Time;durP1;ratioP1;P1;durP2;ratioP2;P2;SDS_P1;SDS_P2;PMS_P1;PMS_P2;Temp;Humidity;BMP_temperature;BMP_pressure;BME280_temperature;BME280_humidity;BME280_pressure;Samples;Min_cycle;Max_cycle;Signal;HPM_P1;HPM_P2
2021/03/06 00:00:31;;;;;;;13.38;7.37;;;-0.90;99.90;;;;;;492359;242;27499;-79
2021/03/06 00:02:33;;;;;;;12.48;7.65;;;-0.90;99.90;;;;;;492375;241;28234;-80
2021/03/06 00:04:34;;;;;;;12.10;7.43;;;-0.90;99.90;;;;;;491462;238;27500;-83
2021/03/06 00:06:35;;;;;;;10.02;7.05;;;-0.90;99.90;;;;;;483792;245;27515;-83
2021/03/06 00:08:36;;;;;;;10.45;6.65;;;-0.90;99.90;;;;;;483777;245;27470;-83
2021/03/06 00:10:38;;;;;;;8.40;5.68;;;-0.90;99.90;;;;;;483861;245;28157;-82
2021/03/06 00:12:39;;;;;;;9.55;5.95;;;-0.90;99.90;;;;;;483810;244;27482;-82
2021/03/06 00:14:40;;;;;;;6.80;4.87;;;-0.90;99.90;;;;;;482781;244;27471;-82
2021/03/06 00:16:41;;;;;;;6.40;4.75;;;-1.00;99.90;;;;;;480646;246;27557;-82
2021/03/06 00:18:43;;;;;;;7.55;4.90;;;-1.00;99.90;;;;;;484077;233;27498;-82
2021/03/06 00:20:44;;;;;;;4.97;4.53;;;-1.00;99.90;;;;;;485597;242;27488;-83
2021/03/06 00:22:45;;;;;;;6.15;4.80;;;-1.00;99.90;;;;;;485235;233;28014;-82
2021/03/06 00:24:46;;;;;;;8.15;5.35;;;-1.00;99.90;;;;;;486366;233;27469;-82
2021/03/06 00:26:48;;;;;;;8.65;5.45;;;-1.00;99.90;;;;;;486365;233;27594;-82
2021/03/06 00:28:49;;;;;;;11.93;7.35;;;-1.00;99.90;;;;;;485941;233;27505;-82
2021/03/06 00:30:50;;;;;;;10.63;7.60;;;-1.00;99.90;;;;;;482755;243;27509;-83
2021/03/06 00:32:51;;;;;;;13.62;7.65;;;-1.00;99.90;;;;;;484807;242;27496;-82
2021/03/06 00:34:53;;;;;;;12.00;7.40;;;-1.00;99.90;;;;;;485082;242;27471;-80
2021/03/06 00:36:54;;;;;;;11.27;7.30;;;-1.10;99.90;;;;;;485178;242;27521;-82
2021/03/06 00:38:55;;;;;;;8.82;6.28;;;-1.10;99.90;;;;;;485822;233;27521;-82
2021/03/06 00:40:56;;;;;;;9.00;6.05;;;-1.10;99.90;;;;;;476695;240;27499;-83
2021/03/06 00:42:58;;;;;;;12.65;6.47;;;-1.10;99.90;;;;;;475727;240;27651;-82
2021/03/06 00:44:59;;;;;;;10.85;6.80;;;-1.00;99.90;;;;;;477364;240;27865;-84
2021/03/06 00:47:00;;;;;;;7.95;6.25;;;-1.00;99.90;;;;;;479739;242;27512;-82
2021/03/06 00:49:01;;;;;;;6.70;5.28;;;-1.00;99.90;;;;;;479665;242;27559;-82
2021/03/06 00:51:03;;;;;;;7.78;5.60;;;-1.00;99.90;;;;;;479665;242;27686;-81
2021/03/06 00:53:04;;;;;;;8.15;5.30;;;-1.00;99.90;;;;;;479377;241;27508;-82
2021/03/06 00:55:05;;;;;;;6.90;4.45;;;-1.00;99.90;;;;;;487699;243;28247;-82
2021/03/06 00:57:06;;;;;;;5.20;4.70;;;-1.00;99.90;;;;;;487701;244;27479;-83
2021/03/06 00:59:08;;;;;;;7.40;4.80;;;-1.00;99.90;;;;;;487696;244;27480;-83
2021/03/06 01:01:09;;;;;;;5.60;5.00;;;-0.90;99.90;;;;;;487789;244;27466;-83
2021/03/06 01:03:10;;;;;;;8.23;4.65;;;-0.90;99.90;;;;;;487691;244;27826;-83
2021/03/06 01:05:11;;;;;;;7.25;4.50;;;-0.90;99.90;;;;;;487394;238;27477;-83
2021/03/06 01:07:13;;;;;;;5.10;4.70;;;-1.00;99.90;;;;;;487284;238;27572;-81
2021/03/06 01:09:14;;;;;;;4.45;3.75;;;-0.90;99.90;;;;;;487829;239;27501;-82
2021/03/06 01:11:15;;;;;;;4.95;4.50;;;-0.90;99.90;;;;;;487976;240;27508;-82
2021/03/06 01:13:16;;;;;;;4.22;3.90;;;-0.90;99.90;;;;;;487894;241;27499;-81
2021/03/06 01:15:18;;;;;;;4.95;3.87;;;-0.90;99.90;;;;;;487917;240;27912;-83
2021/03/06 01:17:20;;;;;;;6.70;5.10;;;-0.90;99.90;;;;;;487891;241;27599;-82
2021/03/06 01:19:20;;;;;;;5.70;4.45;;;-0.90;99.90;;;;;;487970;240;27533;-82
2021/03/06 01:21:21;;;;;;;5.65;4.82;;;-0.90;99.90;;;;;;487806;240;27488;-82
2021/03/06 01:23:23;;;;;;;4.20;3.80;;;-0.90;99.90;;;;;;487869;240;27591;-82
2021/03/06 01:25:24;;;;;;;5.10;4.60;;;-0.90;99.90;;;;;;487916;241;27581;-84
2021/03/06 01:27:25;;;;;;;4.97;4.10;;;-0.90;99.90;;;;;;487846;240;27493;-83
2021/03/06 01:29:26;;;;;;;4.95;4.20;;;-0.90;99.90;;;;;;487812;240;27603;-83
2021/03/06 01:31:28;;;;;;;5.15;4.35;;;-0.90;99.90;;;;;;487784;241;27492;-81
2021/03/06 01:33:29;;;;;;;4.72;4.07;;;-0.90;99.90;;;;;;487755;241;27493;-83
2021/03/06 01:35:30;;;;;;;6.87;4.12;;;-0.90;99.90;;;;;;487731;238;27568;-82
2021/03/06 01:37:31;;;;;;;5.90;5.25;;;-0.90;99.90;;;;;;487767;240;27493;-83
2021/03/06 01:39:33;;;;;;;4.32;3.90;;;-0.90;99.90;;;;;;487783;241;27509;-83
2021/03/06 01:41:34;;;;;;;4.20;3.90;;;-0.90;99.90;;;;;;487757;241;27505;-81
2021/03/06 01:43:35;;;;;;;4.60;4.20;;;-0.90;99.90;;;;;;487843;240;27598;-83
2021/03/06 01:45:37;;;;;;;4.65;3.87;;;-0.90;99.90;;;;;;487800;238;27473;-82
2021/03/06 01:47:38;;;;;;;4.45;4.00;;;-1.00;99.90;;;;;;487807;238;27503;-84
2021/03/06 01:49:39;;;;;;;6.22;4.65;;;-1.00;99.90;;;;;;487812;238;27796;-83
2021/03/06 01:51:40;;;;;;;5.15;4.55;;;-1.00;99.90;;;;;;487956;240;27446;-82
2021/03/06 01:53:42;;;;;;;5.65;4.20;;;-1.00;99.90;;;;;;487851;240;27500;-82
2021/03/06 01:55:43;;;;;;;4.40;4.00;;;-1.00;99.90;;;;;;487932;238;27491;-83
2021/03/06 01:57:44;;;;;;;4.70;4.30;;;-1.00;99.90;;;;;;487834;238;27850;-83
2021/03/06 01:59:45;;;;;;;4.55;3.87;;;-1.00;99.90;;;;;;487907;238;27490;-83
2021/03/06 02:01:47;;;;;;;4.28;3.87;;;-1.00;99.90;;;;;;487898;240;28042;-82
2021/03/06 02:03:48;;;;;;;7.47;4.57;;;-1.10;99.90;;;;;;487892;238;27505;-83
2021/03/06 02:05:49;;;;;;;4.45;4.05;;;-1.10;99.90;;;;;;487925;238;27504;-83
2021/03/06 02:07:50;;;;;;;5.87;4.75;;;-1.10;99.90;;;;;;487887;240;27529;-82
2021/03/06 02:09:52;;;;;;;6.70;4.05;;;-1.10;99.90;;;;;;487863;240;27582;-82
2021/03/06 02:11:53;;;;;;;5.30;4.60;;;-1.10;99.90;;;;;;487943;240;27492;-83
2021/03/06 02:13:54;;;;;;;5.07;4.15;;;-1.10;99.90;;;;;;491308;234;27983;-82
2021/03/06 02:15:55;;;;;;;7.55;4.37;;;-1.10;99.90;;;;;;492138;242;27747;-82
2021/03/06 02:17:57;;;;;;;6.75;3.92;;;-1.10;99.90;;;;;;492389;241;27479;-82
2021/03/06 02:19:58;;;;;;;4.05;3.62;;;-1.10;99.90;;;;;;492358;242;27452;-82
2021/03/06 02:21:59;;;;;;;4.80;4.30;;;-1.10;99.90;;;;;;492140;241;27965;-83
2021/03/06 02:24:00;;;;;;;5.70;3.90;;;-1.10;99.90;;;;;;492132;240;27491;-83
2021/03/06 02:26:02;;;;;;;5.30;3.95;;;-1.10;99.90;;;;;;492308;240;27597;-82
2021/03/06 02:28:03;;;;;;;5.43;4.12;;;-1.10;99.90;;;;;;492092;241;27492;-81
2021/03/06 02:30:04;;;;;;;7.87;4.80;;;-1.20;99.90;;;;;;492092;240;27497;-82
2021/03/06 02:32:05;;;;;;;5.60;4.37;;;-1.10;99.90;;;;;;492090;241;28035;-82
2021/03/06 02:34:07;;;;;;;8.45;4.10;;;-1.10;99.90;;;;;;492095;241;28255;-83
2021/03/06 02:36:08;;;;;;;8.60;3.72;;;-1.10;99.90;;;;;;492083;241;27586;-83
2021/03/06 02:38:09;;;;;;;4.30;3.83;;;-1.10;99.90;;;;;;480726;240;27649;-82
2021/03/06 02:40:10;;;;;;;7.03;3.53;;;-1.00;99.90;;;;;;471243;249;27610;-82
2021/03/06 02:42:12;;;;;;;4.47;4.07;;;-1.10;99.90;;;;;;474725;250;27517;-84
2021/03/06 02:44:13;;;;;;;8.20;4.07;;;-1.00;99.90;;;;;;476384;244;27609;-83
2021/03/06 02:46:14;;;;;;;4.37;3.37;;;-1.00;99.90;;;;;;479133;238;27523;-82
2021/03/06 02:48:15;;;;;;;4.20;3.83;;;-1.00;99.90;;;;;;479148;238;27591;-82
2021/03/06 02:50:17;;;;;;;8.02;4.12;;;-1.00;99.90;;;;;;479051;238;27415;-83
2021/03/06 02:52:18;;;;;;;4.35;3.87;;;-1.00;99.90;;;;;;479139;238;28056;-82
2021/03/06 02:54:19;;;;;;;6.40;4.50;;;-1.00;99.90;;;;;;479127;238;27744;-82
2021/03/06 02:56:20;;;;;;;3.50;3.20;;;-1.10;99.90;;;;;;479238;238;27500;-82
2021/03/06 02:58:22;;;;;;;4.20;3.70;;;-1.10;99.90;;;;;;479217;238;28034;-85
2021/03/06 03:00:23;;;;;;;3.97;3.60;;;-1.10;99.90;;;;;;479162;238;28205;-83
2021/03/06 03:02:24;;;;;;;4.93;3.83;;;-1.10;99.90;;;;;;479065;238;27511;-82
2021/03/06 03:04:25;;;;;;;7.35;3.95;;;-1.10;99.90;;;;;;479040;238;27495;-82
2021/03/06 03:06:27;;;;;;;4.25;3.85;;;-1.00;99.90;;;;;;479114;238;27508;-83
2021/03/06 03:08:28;;;;;;;4.95;3.80;;;-1.00;99.90;;;;;;479039;238;27515;-82
2021/03/06 03:10:29;;;;;;;6.87;3.87;;;-1.00;99.90;;;;;;479025;238;27491;-83
2021/03/06 03:12:30;;;;;;;3.97;3.65;;;-1.00;99.90;;;;;;479108;238;27518;-83
2021/03/06 03:14:32;;;;;;;4.05;3.50;;;-1.00;99.90;;;;;;479061;238;27596;-82
2021/03/06 03:16:33;;;;;;;5.47;4.20;;;-1.10;99.90;;;;;;479087;238;27522;-82
2021/03/06 03:18:34;;;;;;;6.72;3.55;;;-1.00;99.90;;;;;;479069;238;27975;-82
2021/03/06 03:20:35;;;;;;;3.50;3.20;;;-1.10;99.90;;;;;;479002;238;27531;-83
2021/03/06 03:22:37;;;;;;;6.32;3.70;;;-1.10;99.90;;;;;;479029;238;27600;-82
2021/03/06 03:24:38;;;;;;;3.75;3.45;;;-1.00;99.90;;;;;;479020;238;27574;-83
2021/03/06 03:26:39;;;;;;;4.18;3.37;;;-1.00;99.90;;;;;;478999;238;27511;-82
2021/03/06 03:28:40;;;;;;;3.87;3.37;;;-1.00;99.90;;;;;;478999;238;28078;-82
2021/03/06 03:30:42;;;;;;;5.30;3.60;;;-1.00;99.90;;;;;;479011;241;27514;-83
2021/03/06 03:32:43;;;;;;;4.25;3.50;;;-1.10;99.90;;;;;;478969;237;27526;-82
2021/03/06 03:34:44;;;;;;;4.72;3.40;;;-1.20;99.90;;;;;;478964;238;27493;-82
2021/03/06 03:36:45;;;;;;;3.67;3.37;;;-1.10;99.90;;;;;;479036;238;27599;-83
2021/03/06 03:38:47;;;;;;;4.07;3.75;;;-1.20;99.90;;;;;;478998;238;28198;-83
2021/03/06 03:40:48;;;;;;;4.37;3.85;;;-1.20;99.90;;;;;;479056;238;27523;-83
2021/03/06 03:42:49;;;;;;;5.18;3.95;;;-1.20;99.90;;;;;;479046;238;27534;-83
2021/03/06 03:44:50;;;;;;;5.60;4.57;;;-1.20;99.90;;;;;;479033;238;27531;-82
2021/03/06 03:46:52;;;;;;;3.97;3.62;;;-1.20;99.90;;;;;;479014;237;27510;-82
2021/03/06 03:48:53;;;;;;;5.28;3.85;;;-1.30;99.90;;;;;;479024;237;27543;-82
2021/03/06 03:50:54;;;;;;;4.72;4.20;;;-1.30;99.90;;;;;;478943;237;27554;-82
2021/03/06 03:52:55;;;;;;;5.15;4.40;;;-1.30;99.90;;;;;;478995;238;27536;-83
2021/03/06 03:54:57;;;;;;;4.78;3.60;;;-1.30;99.90;;;;;;479009;238;27491;-83
2021/03/06 03:56:58;;;;;;;3.80;3.40;;;-1.40;99.90;;;;;;478996;238;27871;-83
2021/03/06 03:58:59;;;;;;;6.53;3.83;;;-1.40;99.90;;;;;;471914;238;27633;-83
2021/03/06 04:01:00;;;;;;;4.00;3.70;;;-1.40;99.90;;;;;;467884;248;27519;-83
2021/03/06 04:03:02;;;;;;;4.57;3.80;;;-1.50;99.90;;;;;;474336;251;27600;-83
2021/03/06 04:05:03;;;;;;;3.92;3.55;;;-1.50;99.90;;;;;;474298;247;27593;-82
2021/03/06 04:07:04;;;;;;;6.57;3.97;;;-1.50;99.90;;;;;;477520;237;27570;-83
2021/03/06 04:09:06;;;;;;;4.93;3.75;;;-1.50;99.90;;;;;;492090;242;27568;-83
2021/03/06 04:11:07;;;;;;;4.22;3.72;;;-1.40;99.90;;;;;;491821;240;27529;-83
2021/03/06 04:13:09;;;;;;;4.15;3.75;;;-1.40;99.90;;;;;;484963;240;27530;-82
2021/03/06 04:15:09;;;;;;;5.53;4.93;;;-1.50;99.90;;;;;;468710;251;27495;-82
2021/03/06 04:17:11;;;;;;;4.40;4.00;;;-1.50;99.90;;;;;;469840;253;27502;-81
2021/03/06 04:19:12;;;;;;;6.15;4.50;;;-1.50;99.90;;;;;;469691;253;27434;-83
2021/03/06 04:21:13;;;;;;;4.05;3.65;;;-1.60;99.90;;;;;;469713;252;27599;-82
2021/03/06 04:23:14;;;;;;;8.13;4.35;;;-1.60;99.90;;;;;;469752;251;27500;-81
2021/03/06 04:25:16;;;;;;;4.20;3.80;;;-1.60;99.90;;;;;;469454;245;27518;-82
2021/03/06 04:27:17;;;;;;;4.25;3.85;;;-1.60;99.90;;;;;;469230;245;27459;-83
2021/03/06 04:29:18;;;;;;;5.35;4.10;;;-1.60;99.90;;;;;;469554;245;27443;-83
2021/03/06 04:31:19;;;;;;;8.07;4.62;;;-1.60;99.90;;;;;;469459;245;27665;-81
2021/03/06 04:33:21;;;;;;;4.78;3.80;;;-1.60;99.90;;;;;;469466;246;27542;-83
2021/03/06 04:35:22;;;;;;;4.20;3.80;;;-1.60;99.90;;;;;;471287;233;27550;-83
2021/03/06 04:37:23;;;;;;;5.25;4.00;;;-1.70;99.90;;;;;;480222;246;27501;-82
2021/03/06 04:39:24;;;;;;;3.55;3.20;;;-1.70;99.90;;;;;;466133;254;28629;-83
2021/03/06 04:41:26;;;;;;;4.40;3.70;;;-1.70;99.90;;;;;;468359;246;27595;-82
2021/03/06 04:43:27;;;;;;;4.10;3.80;;;-1.70;99.90;;;;;;486623;244;27548;-83
2021/03/06 04:45:28;;;;;;;4.47;3.90;;;-1.70;99.90;;;;;;476316;243;27555;-83
2021/03/06 04:47:29;;;;;;;4.05;3.75;;;-1.70;99.90;;;;;;476519;247;28654;-82
2021/03/06 04:49:31;;;;;;;4.75;3.90;;;-1.80;99.90;;;;;;476391;247;27566;-83
2021/03/06 04:51:32;;;;;;;4.47;3.67;;;-1.70;99.90;;;;;;476473;247;27616;-82
2021/03/06 04:53:33;;;;;;;4.35;3.92;;;-1.80;99.90;;;;;;476350;246;27550;-81
2021/03/06 04:55:34;;;;;;;4.78;3.83;;;-1.70;99.90;;;;;;476422;247;27541;-83
2021/03/06 04:57:36;;;;;;;6.32;4.40;;;-1.80;99.90;;;;;;476300;247;27635;-82
2021/03/06 04:59:37;;;;;;;4.10;3.70;;;-1.80;99.90;;;;;;475623;247;27533;-83
2021/03/06 05:01:38;;;;;;;4.78;4.37;;;-1.80;99.90;;;;;;476507;247;27577;-83
2021/03/06 05:03:39;;;;;;;3.80;3.50;;;-1.80;99.90;;;;;;476453;247;27526;-83
2021/03/06 05:08:04;;;;;;;5.22;4.05;;;-1.90;99.90;;;;;;497675;239;27781;-83
2021/03/06 05:10:05;;;;;;;5.35;3.45;;;-1.90;99.90;;;;;;497676;239;27297;-82
2021/03/06 05:12:07;;;;;;;5.65;4.50;;;-1.90;99.90;;;;;;497238;239;27350;-84
2021/03/06 05:14:08;;;;;;;5.43;4.43;;;-1.90;99.90;;;;;;493266;241;27284;-85
2021/03/06 05:16:09;;;;;;;5.97;4.40;;;-1.90;99.90;;;;;;490212;242;27352;-81
2021/03/06 05:18:10;;;;;;;4.70;4.20;;;-1.90;99.90;;;;;;490035;242;27270;-83
2021/03/06 05:20:12;;;;;;;3.60;3.30;;;-1.90;99.90;;;;;;489997;242;27452;-83
2021/03/06 05:22:13;;;;;;;5.03;4.53;;;-1.90;99.90;;;;;;490245;243;27276;-82
2021/03/06 05:24:16;;;;;;;4.50;4.10;;;-1.90;99.90;;;;;;490259;242;27500;-83
2021/03/06 05:26:17;;;;;;;4.18;3.78;;;-1.90;99.90;;;;;;470516;253;27386;-83
2021/03/06 05:28:18;;;;;;;4.93;3.60;;;-1.90;99.90;;;;;;478875;248;27827;-83
2021/03/06 05:30:20;;;;;;;4.60;3.85;;;-1.90;99.90;;;;;;476174;240;27788;-83
2021/03/06 05:32:21;;;;;;;4.75;3.95;;;-1.90;99.90;;;;;;489142;244;27509;-83
2021/03/06 05:34:22;;;;;;;5.30;3.90;;;-1.90;99.90;;;;;;488923;243;27501;-83
2021/03/06 05:36:23;;;;;;;5.15;4.22;;;-1.90;99.90;;;;;;488810;243;27472;-83
2021/03/06 05:38:25;;;;;;;5.70;4.12;;;-2.00;99.90;;;;;;488646;243;27498;-83
2021/03/06 05:40:26;;;;;;;7.53;5.05;;;-2.00;99.90;;;;;;488718;244;27351;-83
2021/03/06 05:42:28;;;;;;;5.82;4.75;;;-2.00;99.90;;;;;;488840;243;27330;-83
2021/03/06 05:44:29;;;;;;;6.47;4.78;;;-1.90;99.90;;;;;;488427;243;27512;-84
2021/03/06 05:46:30;;;;;;;7.70;5.07;;;-1.90;99.90;;;;;;488242;242;27239;-83
2021/03/06 05:48:31;;;;;;;10.85;6.12;;;-1.90;99.90;;;;;;488615;239;27486;-84
2021/03/06 05:50:32;;;;;;;6.30;5.37;;;-1.90;99.90;;;;;;488625;243;27402;-84
2021/03/06 05:52:34;;;;;;;6.55;5.50;;;-1.90;99.90;;;;;;488469;243;27464;-83
2021/03/06 05:54:38;;;;;;;11.45;5.55;;;-1.90;99.90;;;;;;488554;243;27449;-82
2021/03/06 05:56:39;;;;;;;7.37;5.95;;;-1.90;99.90;;;;;;488630;243;27250;-83
2021/03/06 05:58:40;;;;;;;6.50;5.50;;;-1.90;99.90;;;;;;488564;243;27330;-83
2021/03/06 06:00:42;;;;;;;5.00;4.53;;;-1.90;99.90;;;;;;488325;243;27481;-82
2021/03/06 06:02:43;;;;;;;6.72;5.50;;;-1.80;99.90;;;;;;488220;237;27480;-83
2021/03/06 06:15:05;;;;;;;5.50;5.00;;;-1.80;99.90;;;;;;473387;247;27529;-82
2021/03/06 06:27:25;;;;;;;6.40;5.20;;;-1.70;99.90;;;;;;485677;245;27393;-83
2021/03/06 06:29:27;;;;;;;8.50;5.90;;;-1.70;99.90;;;;;;487806;235;27556;-84
2021/03/06 06:41:47;;;;;;;11.60;6.12;;;-1.60;99.90;;;;;;487282;234;27779;-84
2021/03/06 06:56:22;;;;;;;5.50;4.47;;;-1.40;99.90;;;;;;477315;249;28628;-83
2021/03/06 07:04:33;;;;;;;5.43;4.90;;;-1.20;99.90;;;;;;480673;237;28628;-83
2021/03/06 07:16:59;;;;;;;5.65;4.62;;;-1.00;99.90;;;;;;486339;245;27520;-83
2021/03/06 07:21:08;;;;;;;5.40;4.25;;;-0.90;99.90;;;;;;475430;233;28809;-83
2021/03/06 07:25:12;;;;;;;5.03;3.95;;;-0.80;99.90;;;;;;483131;246;27476;-86
2021/03/06 07:27:13;;;;;;;5.62;4.87;;;-0.80;99.90;;;;;;490862;236;27561;-86
2021/03/06 07:29:15;;;;;;;6.97;4.90;;;-0.80;99.90;;;;;;479708;241;27535;-84
2021/03/06 07:31:16;;;;;;;5.72;4.55;;;-0.70;99.90;;;;;;480236;234;27534;-83
2021/03/06 07:33:17;;;;;;;7.10;4.85;;;-0.60;99.90;;;;;;482312;238;27324;-82
2021/03/06 07:43:39;;;;;;;4.50;4.10;;;-0.30;99.90;;;;;;486393;245;27566;-84
2021/03/06 07:54:01;;;;;;;4.60;4.20;;;0.10;99.90;;;;;;484661;235;27458;-85
2021/03/06 08:02:18;;;;;;;4.72;3.45;;;0.30;99.90;;;;;;468439;242;27876;-83
2021/03/06 08:04:22;;;;;;;3.90;3.55;;;0.40;99.90;;;;;;483689;241;28672;-84
2021/03/06 08:20:49;;;;;;;6.97;3.12;;;0.80;99.90;;;;;;488343;236;27920;-82
2021/03/06 08:24:52;;;;;;;3.28;3.00;;;0.90;99.90;;;;;;486037;237;27587;-84
2021/03/06 08:28:57;;;;;;;4.80;3.45;;;1.00;99.90;;;;;;484691;236;27496;-83
2021/03/06 08:39:13;;;;;;;3.65;3.35;;;1.20;99.90;;;;;;485079;245;27879;-83
2021/03/06 08:41:14;;;;;;;4.65;3.20;;;1.20;99.90;;;;;;480959;240;27453;-83
2021/03/06 08:51:32;;;;;;;4.10;3.70;;;1.40;99.90;;;;;;469895;240;27536;-84
2021/03/06 08:55:45;;;;;;;4.00;3.70;;;1.40;99.90;;;;;;484062;234;28560;-83
2021/03/06 08:59:48;;;;;;;3.87;3.20;;;1.50;99.90;;;;;;489289;237;28022;-84
2021/03/06 09:03:53;;;;;;;5.85;3.72;;;1.50;99.90;;;;;;471462;242;27661;-83
2021/03/06 09:14:22;;;;;;;3.30;3.00;;;1.80;99.90;;;;;;470840;234;28745;-81
2021/03/06 09:18:27;;;;;;;3.95;3.65;;;1.80;99.90;;;;;;479539;235;27510;-85
2021/03/06 09:22:32;;;;;;;3.30;3.00;;;1.90;99.90;;;;;;475072;240;27481;-82
2021/03/06 09:28:40;;;;;;;3.60;3.30;;;2.00;99.30;;;;;;479582;233;27552;-85
2021/03/06 09:30:42;;;;;;;3.67;3.37;;;2.00;99.90;;;;;;470323;240;27579;-81
2021/03/06 09:43:05;;;;;;;41.65;22.13;;;2.40;97.60;;;;;;482382;233;27643;-83
2021/03/06 09:51:15;;;;;;;28.77;18.33;;;2.40;96.60;;;;;;484067;237;27947;-82
2021/03/06 09:53:16;;;;;;;12.48;8.98;;;2.50;96.70;;;;;;473160;241;27516;-83
2021/03/06 09:57:27;;;;;;;18.50;7.87;;;2.50;95.40;;;;;;491244;240;27913;-84
2021/03/06 10:03:40;;;;;;;5.95;4.20;;;2.40;96.20;;;;;;479214;241;29335;-86
2021/03/06 10:16:06;;;;;;;4.50;4.07;;;2.60;95.80;;;;;;495562;233;28605;-84
2021/03/06 10:24:16;;;;;;;4.68;3.22;;;2.60;96.20;;;;;;480934;235;28580;-84
2021/03/06 10:30:23;;;;;;;3.70;3.40;;;2.80;94.70;;;;;;475721;236;27936;-82
2021/03/06 10:38:39;;;;;;;6.30;4.70;;;3.00;95.40;;;;;;478421;233;27872;-82
2021/03/06 10:46:51;;;;;;;4.15;3.75;;;3.20;96.30;;;;;;483087;236;27438;-84
2021/03/06 10:59:06;;;;;;;3.90;3.45;;;3.30;95.60;;;;;;487514;244;27769;-83
2021/03/06 11:03:11;;;;;;;4.85;3.58;;;3.50;96.50;;;;;;485450;242;27542;-86
2021/03/06 11:05:16;;;;;;;3.40;3.10;;;3.50;95.30;;;;;;485075;234;27549;-87
2021/03/06 11:17:48;;;;;;;4.72;3.55;;;3.80;92.50;;;;;;487174;242;27488;-84
2021/03/06 11:28:09;;;;;;;3.65;2.80;;;3.90;90.10;;;;;;481991;236;27475;-86
2021/03/06 11:34:39;;;;;;;4.10;3.00;;;4.30;87.90;;;;;;475520;234;27515;-84
2021/03/06 11:44:43;;;;;;;2.80;2.60;;;4.40;86.60;;;;;;485096;241;27413;-86
2021/03/06 11:48:47;;;;;;;2.87;2.67;;;4.40;80.80;;;;;;480703;241;27528;-85
2021/03/06 11:57:16;;;;;;;2.30;2.20;;;4.30;78.60;;;;;;489595;235;27577;-85
2021/03/06 12:05:46;;;;;;;3.72;2.83;;;4.40;78.90;;;;;;482417;233;27950;-82
2021/03/06 12:08:14;;;;;;;2.78;2.58;;;4.60;77.70;;;;;;477915;241;27371;-82
2021/03/06 12:10:16;;;;;;;4.93;2.72;;;4.60;75.60;;;;;;478270;245;27621;-82
2021/03/06 12:12:17;;;;;;;2.75;2.55;;;4.60;73.70;;;;;;478309;245;27608;-82
2021/03/06 12:14:18;;;;;;;2.60;2.40;;;4.60;72.80;;;;;;478340;246;27642;-82
2021/03/06 12:16:20;;;;;;;3.20;2.12;;;4.50;71.30;;;;;;478313;244;27580;-80
2021/03/06 12:18:22;;;;;;;2.45;2.35;;;4.60;72.80;;;;;;478318;244;27520;-82
2021/03/06 12:20:22;;;;;;;2.45;2.35;;;4.70;71.60;;;;;;478255;244;27592;-82
2021/03/06 12:22:23;;;;;;;2.85;2.37;;;4.80;70.80;;;;;;478248;244;27521;-82
2021/03/06 12:24:25;;;;;;;3.00;2.37;;;4.90;71.00;;;;;;478267;244;27602;-81
2021/03/06 12:26:26;;;;;;;2.50;2.30;;;4.80;69.30;;;;;;478232;244;27836;-81
2021/03/06 12:28:27;;;;;;;2.95;2.30;;;4.80;68.50;;;;;;478380;244;27527;-80
2021/03/06 12:30:31;;;;;;;2.55;2.40;;;4.80;68.00;;;;;;478190;244;27561;-82
2021/03/06 12:32:30;;;;;;;2.60;2.40;;;4.90;67.60;;;;;;478225;244;27539;-82
2021/03/06 12:34:31;;;;;;;3.20;2.75;;;4.90;65.70;;;;;;478482;244;27907;-82
2021/03/06 12:36:32;;;;;;;2.80;2.40;;;4.90;68.00;;;;;;478398;244;28066;-80
2021/03/06 12:38:33;;;;;;;2.62;2.42;;;5.00;67.60;;;;;;478468;244;27612;-81
2021/03/06 12:40:35;;;;;;;2.75;2.55;;;5.00;67.20;;;;;;478447;244;28081;-82
2021/03/06 12:42:36;;;;;;;3.53;2.70;;;5.00;68.20;;;;;;478273;241;27552;-82
2021/03/06 12:44:40;;;;;;;2.70;2.50;;;5.10;68.80;;;;;;478299;244;26899;-81
2021/03/06 12:46:41;;;;;;;2.60;2.40;;;5.00;68.00;;;;;;478531;244;27521;-82
2021/03/06 12:48:43;;;;;;;3.40;2.50;;;5.00;71.30;;;;;;478459;244;27838;-82
2021/03/06 12:50:44;;;;;;;2.40;2.30;;;5.10;69.70;;;;;;478451;244;27520;-81
2021/03/06 12:52:46;;;;;;;2.67;2.47;;;5.10;69.10;;;;;;478499;244;27652;-82
2021/03/06 12:54:47;;;;;;;2.58;2.45;;;5.10;66.20;;;;;;478495;244;27467;-83
2021/03/06 12:56:48;;;;;;;2.70;2.50;;;5.10;65.00;;;;;;478239;244;27698;-81
2021/03/06 12:58:49;;;;;;;2.90;2.67;;;5.10;66.20;;;;;;478334;244;27528;-82
2021/03/06 13:00:50;;;;;;;2.62;2.50;;;5.10;66.50;;;;;;478274;244;27516;-82
2021/03/06 13:02:52;;;;;;;2.53;2.33;;;5.20;65.80;;;;;;478457;244;27534;-82
2021/03/06 13:04:53;;;;;;;2.60;2.40;;;5.20;64.80;;;;;;480118;244;27443;-81
2021/03/06 13:06:54;;;;;;;5.78;2.30;;;5.30;64.00;;;;;;486226;242;27525;-82
2021/03/06 13:08:55;;;;;;;2.65;2.45;;;5.40;63.20;;;;;;486137;237;27521;-81
2021/03/06 13:10:57;;;;;;;2.72;2.53;;;5.50;61.20;;;;;;486185;237;27507;-81
2021/03/06 13:12:58;;;;;;;3.72;2.60;;;5.50;62.10;;;;;;486042;237;27520;-80
2021/03/06 13:14:59;;;;;;;2.55;2.35;;;5.40;62.20;;;;;;486190;237;27603;-81
2021/03/06 13:17:00;;;;;;;4.90;2.60;;;5.50;63.50;;;;;;486366;237;27528;-82
2021/03/06 13:19:02;;;;;;;3.10;2.90;;;5.50;64.20;;;;;;486224;237;27516;-81
2021/03/06 13:21:03;;;;;;;2.72;2.53;;;5.60;62.90;;;;;;486025;237;27627;-81
2021/03/06 13:23:04;;;;;;;4.97;3.55;;;5.50;61.90;;;;;;486115;237;27643;-82
2021/03/06 13:25:05;;;;;;;11.15;6.35;;;5.50;63.50;;;;;;486070;237;27504;-82
2021/03/06 13:27:07;;;;;;;20.80;11.65;;;5.50;63.80;;;;;;467619;240;27593;-82
2021/03/06 13:29:08;;;;;;;3.45;3.00;;;5.50;67.90;;;;;;474884;245;27686;-82
2021/03/06 13:31:09;;;;;;;3.12;2.87;;;5.60;63.50;;;;;;476157;240;27521;-82
2021/03/06 13:33:10;;;;;;;3.10;2.80;;;5.50;63.50;;;;;;475991;241;27603;-81
2021/03/06 13:35:12;;;;;;;5.43;3.00;;;5.60;65.40;;;;;;476056;241;27471;-81
2021/03/06 13:37:13;;;;;;;2.87;2.67;;;5.70;67.50;;;;;;476074;241;27594;-82
2021/03/06 13:39:14;;;;;;;2.50;2.30;;;5.80;64.50;;;;;;475877;241;27871;-82
2021/03/06 13:41:15;;;;;;;2.50;2.22;;;5.70;62.30;;;;;;476106;241;27523;-82
2021/03/06 13:43:17;;;;;;;3.12;2.90;;;5.80;64.30;;;;;;476414;241;27557;-84
2021/03/06 13:45:18;;;;;;;2.95;2.75;;;5.80;64.60;;;;;;487137;237;27512;-81
2021/03/06 13:47:19;;;;;;;3.40;2.62;;;5.80;65.80;;;;;;487164;236;27563;-81
2021/03/06 13:49:20;;;;;;;3.78;3.12;;;5.70;63.70;;;;;;476272;250;27536;-82
2021/03/06 13:51:22;;;;;;;3.53;3.03;;;5.80;66.90;;;;;;484377;241;27568;-82
2021/03/06 13:53:23;;;;;;;4.15;3.10;;;5.80;63.40;;;;;;475999;243;27571;-82
2021/03/06 13:55:24;;;;;;;2.97;2.67;;;5.80;64.50;;;;;;476089;246;27560;-84
2021/03/06 13:57:25;;;;;;;3.90;2.95;;;5.70;64.60;;;;;;484402;241;27537;-82
2021/03/06 13:59:27;;;;;;;2.72;2.53;;;5.70;65.50;;;;;;480110;246;27639;-82
2021/03/06 14:01:29;;;;;;;7.95;5.03;;;5.70;65.20;;;;;;475512;245;27641;-82
2021/03/06 14:03:29;;;;;;;3.60;3.25;;;5.80;65.40;;;;;;478787;243;27547;-82
2021/03/06 14:05:30;;;;;;;3.42;3.12;;;5.80;63.40;;;;;;478765;243;27458;-82
2021/03/06 14:07:32;;;;;;;3.20;2.60;;;5.90;64.00;;;;;;478686;243;27524;-82
2021/03/06 14:09:33;;;;;;;5.72;3.80;;;6.00;65.70;;;;;;478743;243;27638;-82
2021/03/06 14:11:34;;;;;;;4.05;3.10;;;6.00;67.00;;;;;;483360;239;27530;-82
2021/03/06 14:13:35;;;;;;;3.00;2.80;;;6.00;66.00;;;;;;492592;238;27580;-81
2021/03/06 14:15:37;;;;;;;3.37;2.70;;;5.90;63.60;;;;;;494300;238;27515;-83
2021/03/06 14:17:38;;;;;;;2.90;2.70;;;5.90;64.30;;;;;;489892;243;27472;-80
2021/03/06 14:19:39;;;;;;;3.20;2.90;;;5.90;62.30;;;;;;486994;242;27450;-81
2021/03/06 14:21:40;;;;;;;2.62;2.42;;;5.90;61.60;;;;;;476158;247;27503;-81
2021/03/06 14:23:42;;;;;;;2.62;2.40;;;6.10;61.80;;;;;;486395;242;27873;-82
2021/03/06 14:25:43;;;;;;;2.60;2.50;;;6.10;61.50;;;;;;488819;240;27453;-83
2021/03/06 14:27:44;;;;;;;3.17;2.60;;;6.00;60.40;;;;;;488559;237;27504;-82
2021/03/06 14:29:46;;;;;;;5.70;3.60;;;6.10;61.30;;;;;;488599;237;27508;-82
2021/03/06 14:31:47;;;;;;;3.60;2.80;;;6.10;61.20;;;;;;488672;237;27449;-82
2021/03/06 14:33:48;;;;;;;7.03;3.40;;;6.20;59.30;;;;;;488818;237;27566;-81
2021/03/06 14:35:51;;;;;;;2.62;2.42;;;6.20;57.30;;;;;;488666;237;27429;-81
2021/03/06 14:37:52;;;;;;;3.87;2.60;;;6.10;57.60;;;;;;488579;237;28094;-81
2021/03/06 14:39:54;;;;;;;2.50;2.30;;;6.10;59.50;;;;;;488702;237;27804;-81
2021/03/06 14:41:55;;;;;;;2.08;1.98;;;6.10;58.80;;;;;;488620;237;27774;-81
2021/03/06 14:43:56;;;;;;;2.70;2.50;;;6.00;57.90;;;;;;488619;237;27822;-82
2021/03/06 14:45:58;;;;;;;2.55;2.35;;;6.10;59.20;;;;;;488563;237;27559;-81
2021/03/06 14:47:59;;;;;;;2.78;2.35;;;6.10;58.90;;;;;;488455;237;27563;-81
2021/03/06 14:50:00;;;;;;;3.12;2.20;;;6.10;58.80;;;;;;488716;237;27499;-81
2021/03/06 14:52:01;;;;;;;2.70;2.25;;;6.10;58.10;;;;;;488531;237;27493;-82
2021/03/06 14:54:03;;;;;;;3.28;2.65;;;6.10;59.60;;;;;;478431;237;27579;-81
2021/03/06 14:56:04;;;;;;;2.90;2.70;;;6.10;59.20;;;;;;468134;251;27542;-82